^^
Station Historical Data
Daily Summary for January 12, 2018 Units:  Both    English   Metric
« Previous Day
Next Day »
Daily Weekly Monthly Yearly Custom
  High: Low: Average:
Temperature: TemperatureF °F /  -17.8 °C 18.1 °F /  -7.7 °C 34.8 °F /  1.6 °C
Dew Point: DewpointF °F /  -17.8 °C 16.5 °F /  -8.6 °C 34.6 °F /  1.4 °C
Humidity: Humidity % 93 % 99 %
Wind Speed: WindSpeedMPH mph /  0 km/h - 0.7 mph /  1.1 km/h
Wind Gust: WindSpeedGustMPH mph /  0 km/h - -
Wind:- - SSW
Pressure: PressureIn in /  0 hPa 29.50 in /  998.9 hPa -
Precipitation: 1.13 in /  28.7 mm    
Historical Graphs
 
 
Tabular Data for January 12, 2018
Time Temperature Dew Point Pressure Wind Wind Speed Wind Gust Humidity Rainfall Rate (Hourly) solar Conditions
TemperatureF °F /  -17.8 °C DewpointF °F /  -17.8 °C PressureIn in /  0 hPa Calm     Humidity % HourlyPrecipIn in /  0 mm SoftwareType W/m2 Conditions
00:04 36.3 °F /  2.4 °C 36.3 °F /  2.4 °C 29.86 in /  1011.1 hPa Calm     100 % 0.02 in /  0.51 mm WeatherDisplay:10.37 W/m2 -RA
00:09 36.4 °F /  2.4 °C 36.4 °F /  2.4 °C 29.86 in /  1011.1 hPa Calm     100 % 0.02 in /  0.51 mm WeatherDisplay:10.37 W/m2 -RA
00:14 36.4 °F /  2.4 °C 36.4 °F /  2.4 °C 29.85 in /  1010.7 hPa Calm     100 % 0.03 in /  0.76 mm WeatherDisplay:10.37 W/m2 -RA
00:19 36.5 °F /  2.5 °C 36.5 °F /  2.5 °C 29.85 in /  1010.7 hPa Calm     100 % 0.02 in /  0.51 mm WeatherDisplay:10.37 W/m2 -RA
00:24 36.6 °F /  2.6 °C 36.6 °F /  2.6 °C 29.85 in /  1010.7 hPa Calm     100 % 0.02 in /  0.51 mm WeatherDisplay:10.37 W/m2 -RA
00:29 36.7 °F /  2.6 °C 36.7 °F /  2.6 °C 29.85 in /  1010.7 hPa Calm   3.0 mph /  4.8 km/h 100 % 0.02 in /  0.51 mm WeatherDisplay:10.37 W/m2 -RA
00:34 36.7 °F /  2.6 °C 36.7 °F /  2.6 °C 29.84 in /  1010.4 hPa Calm     100 % 0.02 in /  0.51 mm WeatherDisplay:10.37 W/m2 -RA
00:39 36.8 °F /  2.7 °C 36.8 °F /  2.7 °C 29.83 in /  1010 hPa Calm   1.0 mph /  1.6 km/h 100 % 0.02 in /  0.51 mm WeatherDisplay:10.37 W/m2 -RA
00:44 36.9 °F /  2.7 °C 36.9 °F /  2.7 °C 29.84 in /  1010.4 hPa Calm   2.0 mph /  3.2 km/h 100 % 0.02 in /  0.51 mm WeatherDisplay:10.37 W/m2 -RA
00:49 36.9 °F /  2.7 °C 36.9 °F /  2.7 °C 29.83 in /  1010 hPa Calm     100 % 0.02 in /  0.51 mm WeatherDisplay:10.37 W/m2 -RA
00:59 36.9 °F /  2.7 °C 36.9 °F /  2.7 °C 29.83 in /  1010 hPa Calm   1.0 mph /  1.6 km/h 100 % 0.01 in /  0.25 mm WeatherDisplay:10.37 W/m2 -RA
01:04 37.0 °F /  2.8 °C 37.0 °F /  2.8 °C 29.83 in /  1010 hPa Calm     100 % 0.02 in /  0.51 mm WeatherDisplay:10.37 W/m2 -RA
01:09 37.0 °F /  2.8 °C 37.0 °F /  2.8 °C 29.83 in /  1010 hPa Calm     100 % 0.01 in /  0.25 mm WeatherDisplay:10.37 W/m2 -RA
01:14 37.0 °F /  2.8 °C 37.0 °F /  2.8 °C 29.82 in /  1009.7 hPa Calm     100 % 0.01 in /  0.25 mm WeatherDisplay:10.37 W/m2 -RA
01:19 37.0 °F /  2.8 °C 37.0 °F /  2.8 °C 29.82 in /  1009.7 hPa Calm     100 % 0.00 in /  0 mm WeatherDisplay:10.37 W/m2 -RA
01:24 36.9 °F /  2.7 °C 36.9 °F /  2.7 °C 29.82 in /  1009.7 hPa Calm     100 % 0.01 in /  0.25 mm WeatherDisplay:10.37 W/m2 -RA
01:29 36.9 °F /  2.7 °C 36.9 °F /  2.7 °C 29.81 in /  1009.4 hPa Calm     100 % 0.00 in /  0 mm WeatherDisplay:10.37 W/m2 -RA
01:34 36.8 °F /  2.7 °C 36.8 °F /  2.7 °C 29.81 in /  1009.4 hPa Calm     100 % 0.01 in /  0.25 mm WeatherDisplay:10.37 W/m2 -RA
01:39 36.8 °F /  2.7 °C 36.8 °F /  2.7 °C 29.81 in /  1009.4 hPa Calm     100 % 0.01 in /  0.25 mm WeatherDisplay:10.37 W/m2 -RA
01:44 36.7 °F /  2.6 °C 36.7 °F /  2.6 °C 29.81 in /  1009.4 hPa Calm     100 % 0.02 in /  0.51 mm WeatherDisplay:10.37 W/m2 -RA
01:49 36.7 °F /  2.6 °C 36.7 °F /  2.6 °C 29.81 in /  1009.4 hPa Calm     100 % 0.02 in /  0.51 mm WeatherDisplay:10.37 W/m2 -RA
01:59 36.7 °F /  2.6 °C 36.7 °F /  2.6 °C 29.81 in /  1009.4 hPa Calm     100 % 0.01 in /  0.25 mm WeatherDisplay:10.37 W/m2 -RA
02:04 36.8 °F /  2.7 °C 36.8 °F /  2.7 °C 29.80 in /  1009 hPa Calm     100 % 0.01 in /  0.25 mm WeatherDisplay:10.37 W/m2 -DZ
02:09 36.8 °F /  2.7 °C 36.8 °F /  2.7 °C 29.80 in /  1009 hPa Calm     100 % 0.02 in /  0.51 mm WeatherDisplay:10.37 W/m2 -DZ
02:14 36.9 °F /  2.7 °C 36.9 °F /  2.7 °C 29.80 in /  1009 hPa Calm     100 % 0.02 in /  0.51 mm WeatherDisplay:10.37 W/m2 -RA
02:19 36.9 °F /  2.7 °C 36.9 °F /  2.7 °C 29.80 in /  1009 hPa Calm     100 % 0.01 in /  0.25 mm WeatherDisplay:10.37 W/m2 -RA
02:24 36.9 °F /  2.7 °C 36.9 °F /  2.7 °C 29.80 in /  1009 hPa Calm     100 % 0.02 in /  0.51 mm WeatherDisplay:10.37 W/m2 -RA
02:29 37.0 °F /  2.8 °C 37.0 °F /  2.8 °C 29.80 in /  1009 hPa Calm     100 % 0.01 in /  0.25 mm WeatherDisplay:10.37 W/m2 -RA
02:34 37.0 °F /  2.8 °C 37.0 °F /  2.8 °C 29.80 in /  1009 hPa Calm   1.0 mph /  1.6 km/h 100 % 0.01 in /  0.25 mm WeatherDisplay:10.37 W/m2 -RA
02:39 37.0 °F /  2.8 °C 37.0 °F /  2.8 °C 29.80 in /  1009 hPa Calm     100 % 0.00 in /  0 mm WeatherDisplay:10.37 W/m2 -RA
02:44 37.0 °F /  2.8 °C 37.0 °F /  2.8 °C 29.80 in /  1009 hPa Calm     100 % 0.00 in /  0 mm WeatherDisplay:10.37 W/m2 -RA
02:49 37.0 °F /  2.8 °C 37.0 °F /  2.8 °C 29.80 in /  1009 hPa Calm     100 % 0.00 in /  0 mm WeatherDisplay:10.37 W/m2 -RA
02:54 37.0 °F /  2.8 °C 37.0 °F /  2.8 °C 29.79 in /  1008.7 hPa Calm     100 % 0.00 in /  0 mm WeatherDisplay:10.37 W/m2 -RA
03:04 36.9 °F /  2.7 °C 36.9 °F /  2.7 °C 29.78 in /  1008.4 hPa Calm     100 % 0.00 in /  0 mm WeatherDisplay:10.37 W/m2 -RA
03:09 36.8 °F /  2.7 °C 36.8 °F /  2.7 °C 29.78 in /  1008.4 hPa Calm     100 % 0.00 in /  0 mm WeatherDisplay:10.37 W/m2 -RA
03:19 36.7 °F /  2.6 °C 36.7 °F /  2.6 °C 29.77 in /  1008 hPa Calm     100 % 0.00 in /  0 mm WeatherDisplay:10.37 W/m2 -RA
03:24 36.5 °F /  2.5 °C 36.5 °F /  2.5 °C 29.77 in /  1008 hPa Calm     100 % 0.00 in /  0 mm WeatherDisplay:10.37 W/m2 -RA
03:29 36.4 °F /  2.4 °C 36.4 °F /  2.4 °C 29.77 in /  1008 hPa Calm     100 % 0.00 in /  0 mm WeatherDisplay:10.37 W/m2 -RA
03:34 36.3 °F /  2.4 °C 36.3 °F /  2.4 °C 29.77 in /  1008 hPa Calm     100 % 0.00 in /  0 mm WeatherDisplay:10.37 W/m2 -RA
03:39 36.2 °F /  2.3 °C 36.2 °F /  2.3 °C 29.77 in /  1008 hPa Calm     100 % 0.00 in /  0 mm WeatherDisplay:10.37 W/m2 -RA
03:44 36.1 °F /  2.3 °C 36.1 °F /  2.3 °C 29.76 in /  1007.7 hPa Calm     100 % 0.00 in /  0 mm WeatherDisplay:10.37 W/m2 -RA
03:49 36.1 °F /  2.3 °C 36.1 °F /  2.3 °C 29.76 in /  1007.7 hPa Calm     100 % 0.00 in /  0 mm WeatherDisplay:10.37 W/m2 OVC
03:54 36.0 °F /  2.2 °C 36.0 °F /  2.2 °C 29.76 in /  1007.7 hPa Calm     100 % 0.00 in /  0 mm WeatherDisplay:10.37 W/m2 OVC
03:59 36.0 °F /  2.2 °C 36.0 °F /  2.2 °C 29.76 in /  1007.7 hPa Calm     100 % 0.00 in /  0 mm WeatherDisplay:10.37 W/m2 OVC
04:04 35.9 °F /  2.2 °C 35.9 °F /  2.2 °C 29.76 in /  1007.7 hPa Calm     100 % 0.00 in /  0 mm WeatherDisplay:10.37 W/m2 OVC
04:09 35.9 °F /  2.2 °C 35.9 °F /  2.2 °C 29.75 in /  1007.3 hPa Calm     100 % 0.00 in /  0 mm WeatherDisplay:10.37 W/m2 OVC
04:14 35.9 °F /  2.2 °C 35.9 °F /  2.2 °C 29.75 in /  1007.3 hPa Calm     100 % 0.00 in /  0 mm WeatherDisplay:10.37 W/m2 OVC
04:19 35.8 °F /  2.1 °C 35.8 °F /  2.1 °C 29.75 in /  1007.3 hPa Calm     100 % 0.00 in /  0 mm WeatherDisplay:10.37 W/m2
04:24 35.8 °F /  2.1 °C 35.8 °F /  2.1 °C 29.75 in /  1007.3 hPa Calm     100 % 0.00 in /  0 mm WeatherDisplay:10.37 W/m2
04:29 35.9 °F /  2.2 °C 35.9 °F /  2.2 °C 29.74 in /  1007 hPa NW 1.0 mph /  1.6 km/h 4.0 mph /  6.4 km/h 100 % 0.00 in /  0 mm WeatherDisplay:10.37 W/m2
04:39 35.8 °F /  2.1 °C 35.8 °F /  2.1 °C 29.75 in /  1007.3 hPa Calm   2.0 mph /  3.2 km/h 100 % 0.00 in /  0 mm WeatherDisplay:10.37 W/m2
04:44 35.9 °F /  2.2 °C 35.9 °F /  2.2 °C 29.74 in /  1007 hPa Calm     100 % 0.00 in /  0 mm WeatherDisplay:10.37 W/m2
04:59 35.9 °F /  2.2 °C 35.9 °F /  2.2 °C 29.73 in /  1006.7 hPa Calm     100 % 0.00 in /  0 mm WeatherDisplay:10.37 W/m2 RA
05:04 36.0 °F /  2.2 °C 36.0 °F /  2.2 °C 29.73 in /  1006.7 hPa Calm     100 % 0.01 in /  0.25 mm WeatherDisplay:10.37 W/m2 RA
05:14 36.0 °F /  2.2 °C 36.0 °F /  2.2 °C 29.73 in /  1006.7 hPa Calm     100 % 0.01 in /  0.25 mm WeatherDisplay:10.37 W/m2 RA
05:19 36.1 °F /  2.3 °C 36.1 °F /  2.3 °C 29.72 in /  1006.3 hPa Calm     100 % 0.01 in /  0.25 mm WeatherDisplay:10.37 W/m2 -RA
05:24 36.1 °F /  2.3 °C 36.1 °F /  2.3 °C 29.72 in /  1006.3 hPa Calm     100 % 0.01 in /  0.25 mm WeatherDisplay:10.37 W/m2 -RA
05:29 36.1 °F /  2.3 °C 36.1 °F /  2.3 °C 29.72 in /  1006.3 hPa Calm     100 % 0.00 in /  0 mm WeatherDisplay:10.37 W/m2 -RA
05:34 36.1 °F /  2.3 °C 36.1 °F /  2.3 °C 29.72 in /  1006.3 hPa Calm     100 % 0.01 in /  0.25 mm WeatherDisplay:10.37 W/m2 -RA
05:39 36.1 °F /  2.3 °C 36.1 °F /  2.3 °C 29.72 in /  1006.3 hPa Calm     100 % 0.01 in /  0.25 mm WeatherDisplay:10.37 W/m2 -RA
05:44 36.1 °F /  2.3 °C 36.1 °F /  2.3 °C 29.71 in /  1006 hPa Calm     100 % 0.01 in /  0.25 mm WeatherDisplay:10.37 W/m2 -RA
05:49 36.0 °F /  2.2 °C 36.0 °F /  2.2 °C 29.71 in /  1006 hPa Calm     100 % 0.00 in /  0 mm WeatherDisplay:10.37 W/m2 -RA
05:54 36.1 °F /  2.3 °C 36.1 °F /  2.3 °C 29.72 in /  1006.3 hPa Calm     100 % 0.01 in /  0.25 mm WeatherDisplay:10.37 W/m2 -RA
05:59 36.1 °F /  2.3 °C 36.1 °F /  2.3 °C 29.72 in /  1006.3 hPa Calm     100 % 0.01 in /  0.25 mm WeatherDisplay:10.37 W/m2 -RA
06:04 36.2 °F /  2.3 °C 36.2 °F /  2.3 °C 29.71 in /  1006 hPa Calm     100 % 0.01 in /  0.25 mm WeatherDisplay:10.37 W/m2 -RA
06:09 36.2 °F /  2.3 °C 36.2 °F /  2.3 °C 29.71 in /  1006 hPa Calm     100 % 0.01 in /  0.25 mm WeatherDisplay:10.37 W/m2 -RA
06:14 36.3 °F /  2.4 °C 36.3 °F /  2.4 °C 29.71 in /  1006 hPa Calm     100 % 0.01 in /  0.25 mm WeatherDisplay:10.37 W/m2 -RA
06:24 36.5 °F /  2.5 °C 36.5 °F /  2.5 °C 29.70 in /  1005.6 hPa Calm     100 % 0.02 in /  0.51 mm WeatherDisplay:10.37 W/m2 -RA
06:29 36.6 °F /  2.6 °C 36.6 °F /  2.6 °C 29.71 in /  1006 hPa Calm   2.0 mph /  3.2 km/h 100 % 0.01 in /  0.25 mm WeatherDisplay:10.37 W/m2 -RA
06:34 36.6 °F /  2.6 °C 36.6 °F /  2.6 °C 29.71 in /  1006 hPa Calm     100 % 0.02 in /  0.51 mm WeatherDisplay:10.37 W/m2 -RA
06:39 36.7 °F /  2.6 °C 36.7 °F /  2.6 °C 29.70 in /  1005.6 hPa Calm     100 % 0.02 in /  0.51 mm WeatherDisplay:10.37 W/m2 -RA
06:44 36.7 °F /  2.6 °C 36.7 °F /  2.6 °C 29.71 in /  1006 hPa Calm     100 % 0.02 in /  0.51 mm WeatherDisplay:10.37 W/m2 -RA
06:49 36.7 °F /  2.6 °C 36.7 °F /  2.6 °C 29.71 in /  1006 hPa Calm     100 % 0.02 in /  0.51 mm WeatherDisplay:10.37 W/m2 -RA
06:54 36.8 °F /  2.7 °C 36.8 °F /  2.7 °C 29.70 in /  1005.6 hPa Calm     100 % 0.02 in /  0.51 mm WeatherDisplay:10.37 W/m2 -RA
06:59 36.9 °F /  2.7 °C 36.9 °F /  2.7 °C 29.70 in /  1005.6 hPa Calm     100 % 0.02 in /  0.51 mm WeatherDisplay:10.37 W/m2 -RA
07:04 37.0 °F /  2.8 °C 37.0 °F /  2.8 °C 29.70 in /  1005.6 hPa Calm     100 % 0.01 in /  0.25 mm WeatherDisplay:10.37 W/m2 -RA
07:14 37.2 °F /  2.9 °C 37.2 °F /  2.9 °C 29.70 in /  1005.6 hPa Calm     100 % 0.01 in /  0.25 mm WeatherDisplay:10.37 W/m2 -RA
07:19 37.3 °F /  2.9 °C 37.3 °F /  2.9 °C 29.70 in /  1005.6 hPa Calm     100 % 0.02 in /  0.51 mm WeatherDisplay:10.37 W/m2 -RA
07:24 37.4 °F /  3 °C 37.4 °F /  3 °C 29.69 in /  1005.3 hPa Calm     100 % 0.02 in /  0.51 mm WeatherDisplay:10.37 W/m2 -RA
07:29 37.4 °F /  3 °C 37.4 °F /  3 °C 29.69 in /  1005.3 hPa Calm     100 % 0.00 in /  0 mm WeatherDisplay:10.37 W/m2 -RA
07:34 37.4 °F /  3 °C 37.4 °F /  3 °C 29.69 in /  1005.3 hPa Calm     100 % 0.00 in /  0 mm WeatherDisplay:10.37 W/m2 -RA
07:39 37.5 °F /  3.1 °C 37.5 °F /  3.1 °C 29.69 in /  1005.3 hPa Calm     100 % 0.00 in /  0 mm WeatherDisplay:10.37 W/m2 -RA
07:44 37.5 °F /  3.1 °C 37.5 °F /  3.1 °C 29.68 in /  1005 hPa Calm     100 % 0.00 in /  0 mm WeatherDisplay:10.37 W/m2 -RA
07:49 37.4 °F /  3 °C 37.4 °F /  3 °C 29.68 in /  1005 hPa Calm     100 % 0.00 in /  0 mm WeatherDisplay:10.37 W/m2 -RA
07:54 37.4 °F /  3 °C 37.4 °F /  3 °C 29.68 in /  1005 hPa Calm     100 % 0.00 in /  0 mm WeatherDisplay:10.37 W/m2 -RA
07:59 37.3 °F /  2.9 °C 37.3 °F /  2.9 °C 29.68 in /  1005 hPa Calm     100 % 0.00 in /  0 mm WeatherDisplay:10.37 W/m2 -RA
08:04 37.3 °F /  2.9 °C 37.3 °F /  2.9 °C 29.67 in /  1004.6 hPa Calm     100 % 0.00 in /  0 mm WeatherDisplay:10.37 W/m2 -RA
08:14 37.1 °F /  2.8 °C 37.1 °F /  2.8 °C 29.67 in /  1004.6 hPa Calm     100 % 0.00 in /  0 mm WeatherDisplay:10.37 W/m2 -RA
08:19 37.0 °F /  2.8 °C 37.0 °F /  2.8 °C 29.67 in /  1004.6 hPa Calm     100 % 0.00 in /  0 mm WeatherDisplay:10.37 W/m2 -RA
08:24 36.9 °F /  2.7 °C 36.9 °F /  2.7 °C 29.67 in /  1004.6 hPa Calm     100 % 0.01 in /  0.25 mm WeatherDisplay:10.37 W/m2 -RA
08:29 36.8 °F /  2.7 °C 36.8 °F /  2.7 °C 29.67 in /  1004.6 hPa Calm     100 % 0.00 in /  0 mm WeatherDisplay:10.37 W/m2 -RA
08:34 36.8 °F /  2.7 °C 36.8 °F /  2.7 °C 29.66 in /  1004.3 hPa Calm     100 % 0.00 in /  0 mm WeatherDisplay:10.37 W/m2 -RA
08:44 36.9 °F /  2.7 °C 36.9 °F /  2.7 °C 29.66 in /  1004.3 hPa Calm     100 % 0.00 in /  0 mm WeatherDisplay:10.37 W/m2 -RA
08:49 36.9 °F /  2.7 °C 36.9 °F /  2.7 °C 29.65 in /  1003.9 hPa Calm     100 % 0.01 in /  0.25 mm WeatherDisplay:10.37 W/m2 -RA
08:54 36.9 °F /  2.7 °C 36.9 °F /  2.7 °C 29.65 in /  1003.9 hPa Calm     100 % 0.01 in /  0.25 mm WeatherDisplay:10.37 W/m2 -RA
08:59 36.9 °F /  2.7 °C 36.9 °F /  2.7 °C 29.65 in /  1003.9 hPa Calm     100 % 0.01 in /  0.25 mm WeatherDisplay:10.37 W/m2 -RA
09:09 37.0 °F /  2.8 °C 37.0 °F /  2.8 °C 29.65 in /  1003.9 hPa Calm     100 % 0.00 in /  0 mm WeatherDisplay:10.37 W/m2 -RA
09:14 37.0 °F /  2.8 °C 37.0 °F /  2.8 °C 29.65 in /  1003.9 hPa Calm     100 % 0.00 in /  0 mm WeatherDisplay:10.37 W/m2 -RA
09:19 37.0 °F /  2.8 °C 37.0 °F /  2.8 °C 29.64 in /  1003.6 hPa Calm     100 % 0.00 in /  0 mm WeatherDisplay:10.37 W/m2 -RA
09:24 37.1 °F /  2.8 °C 37.1 °F /  2.8 °C 29.65 in /  1003.9 hPa Calm     100 % 0.00 in /  0 mm WeatherDisplay:10.37 W/m2 -RA
09:34 37.2 °F /  2.9 °C 37.2 °F /  2.9 °C 29.65 in /  1003.9 hPa NW 2.0 mph /  3.2 km/h 5.0 mph /  8 km/h 100 % 0.00 in /  0 mm WeatherDisplay:10.37 W/m2 -RA
09:39 37.2 °F /  2.9 °C 37.2 °F /  2.9 °C 29.65 in /  1003.9 hPa Calm   2.0 mph /  3.2 km/h 100 % 0.00 in /  0 mm WeatherDisplay:10.37 W/m2 -RA
09:44 37.3 °F /  2.9 °C 37.3 °F /  2.9 °C 29.64 in /  1003.6 hPa Calm     100 % 0.01 in /  0.25 mm WeatherDisplay:10.37 W/m2 -RA
09:49 37.3 °F /  2.9 °C 37.3 °F /  2.9 °C 29.64 in /  1003.6 hPa Calm     100 % 0.01 in /  0.25 mm WeatherDisplay:10.37 W/m2 -RA
09:54 37.3 °F /  2.9 °C 37.3 °F /  2.9 °C 29.64 in /  1003.6 hPa Calm     100 % 0.00 in /  0 mm WeatherDisplay:10.37 W/m2 -RA
09:59 37.4 °F /  3 °C 37.4 °F /  3 °C 29.63 in /  1003.3 hPa Calm     100 % 0.00 in /  0 mm WeatherDisplay:10.37 W/m2 -RA
10:04 37.4 °F /  3 °C 37.4 °F /  3 °C 29.63 in /  1003.3 hPa Calm     100 % 0.00 in /  0 mm WeatherDisplay:10.37 W/m2 -RA
10:09 37.4 °F /  3 °C 37.4 °F /  3 °C 29.63 in /  1003.3 hPa Calm     100 % 0.01 in /  0.25 mm WeatherDisplay:10.37 W/m2 -RA
10:14 37.5 °F /  3.1 °C 37.5 °F /  3.1 °C 29.63 in /  1003.3 hPa Calm     100 % 0.00 in /  0 mm WeatherDisplay:10.37 W/m2 -RA
10:29 37.9 °F /  3.3 °C 37.9 °F /  3.3 °C 29.62 in /  1002.9 hPa Calm     100 % 0.01 in /  0.25 mm WeatherDisplay:10.37 W/m2 -RA
10:34 37.9 °F /  3.3 °C 37.9 °F /  3.3 °C 29.61 in /  1002.6 hPa Calm     100 % 0.01 in /  0.25 mm WeatherDisplay:10.37 W/m2 -RA
10:39 38.0 °F /  3.3 °C 38.0 °F /  3.3 °C 29.61 in /  1002.6 hPa Calm     100 % 0.01 in /  0.25 mm WeatherDisplay:10.37 W/m2 -RA
10:44 38.1 °F /  3.4 °C 38.1 °F /  3.4 °C 29.60 in /  1002.3 hPa Calm     100 % 0.01 in /  0.25 mm WeatherDisplay:10.37 W/m2 -RA
10:49 38.2 °F /  3.4 °C 38.2 °F /  3.4 °C 29.60 in /  1002.3 hPa Calm     100 % 0.01 in /  0.25 mm WeatherDisplay:10.37 W/m2 -RA
10:54 38.3 °F /  3.5 °C 38.3 °F /  3.5 °C 29.60 in /  1002.3 hPa Calm     100 % 0.00 in /  0 mm WeatherDisplay:10.37 W/m2 -RA
10:59 38.3 °F /  3.5 °C 38.3 °F /  3.5 °C 29.60 in /  1002.3 hPa Calm     100 % 0.01 in /  0.25 mm WeatherDisplay:10.37 W/m2 -RA
11:04 38.5 °F /  3.6 °C 38.5 °F /  3.6 °C 29.59 in /  1001.9 hPa Calm   1.0 mph /  1.6 km/h 100 % 0.01 in /  0.25 mm WeatherDisplay:10.37 W/m2 -RA
11:09 38.6 °F /  3.7 °C 38.6 °F /  3.7 °C 29.59 in /  1001.9 hPa Calm     100 % 0.01 in /  0.25 mm WeatherDisplay:10.37 W/m2 -RA
11:14 38.6 °F /  3.7 °C 38.6 °F /  3.7 °C 29.58 in /  1001.6 hPa Calm     100 % 0.01 in /  0.25 mm WeatherDisplay:10.37 W/m2 -RA
11:24 38.8 °F /  3.8 °C 38.8 °F /  3.8 °C 29.57 in /  1001.2 hPa Calm     100 % 0.00 in /  0 mm WeatherDisplay:10.37 W/m2 -RA
11:29 38.9 °F /  3.8 °C 38.9 °F /  3.8 °C 29.57 in /  1001.2 hPa Calm     100 % 0.00 in /  0 mm WeatherDisplay:10.37 W/m2 -RA
11:34 39.0 °F /  3.9 °C 39.0 °F /  3.9 °C 29.56 in /  1000.9 hPa Calm     100 % 0.00 in /  0 mm WeatherDisplay:10.37 W/m2 -RA
11:39 39.1 °F /  3.9 °C 39.1 °F /  3.9 °C 29.56 in /  1000.9 hPa Calm     100 % 0.00 in /  0 mm WeatherDisplay:10.37 W/m2 -RA
11:44 39.2 °F /  4 °C 39.2 °F /  4 °C 29.56 in /  1000.9 hPa Calm     100 % 0.00 in /  0 mm WeatherDisplay:10.37 W/m2 -RA
11:49 39.2 °F /  4 °C 39.2 °F /  4 °C 29.56 in /  1000.9 hPa Calm     100 % 0.00 in /  0 mm WeatherDisplay:10.37 W/m2 -RA
11:54 39.3 °F /  4.1 °C 39.3 °F /  4.1 °C 29.56 in /  1000.9 hPa Calm     100 % 0.00 in /  0 mm WeatherDisplay:10.37 W/m2 -RA
11:59 39.3 °F /  4.1 °C 39.3 °F /  4.1 °C 29.55 in /  1000.6 hPa Calm     100 % 0.00 in /  0 mm WeatherDisplay:10.37 W/m2 -RA
12:04 39.3 °F /  4.1 °C 39.3 °F /  4.1 °C 29.55 in /  1000.6 hPa Calm     100 % 0.00 in /  0 mm WeatherDisplay:10.37 W/m2 -RA
12:09 39.4 °F /  4.1 °C 39.4 °F /  4.1 °C 29.55 in /  1000.6 hPa Calm     100 % 0.00 in /  0 mm WeatherDisplay:10.37 W/m2 -RA
12:14 39.5 °F /  4.2 °C 39.5 °F /  4.2 °C 29.54 in /  1000.2 hPa Calm     100 % 0.00 in /  0 mm WeatherDisplay:10.37 W/m2 -RA
12:29 39.9 °F /  4.4 °C 39.9 °F /  4.4 °C 29.54 in /  1000.2 hPa Calm     100 % 0.00 in /  0 mm WeatherDisplay:10.37 W/m2 -RA
12:34 40.0 °F /  4.4 °C 40.0 °F /  4.4 °C 29.54 in /  1000.2 hPa Calm     100 % 0.00 in /  0 mm WeatherDisplay:10.37 W/m2 -RA
12:39 40.0 °F /  4.4 °C 40.0 °F /  4.4 °C 29.53 in /  999.9 hPa Calm     100 % 0.01 in /  0.25 mm WeatherDisplay:10.37 W/m2 -RA
12:44 39.9 °F /  4.4 °C 39.9 °F /  4.4 °C 29.53 in /  999.9 hPa Calm     100 % 0.00 in /  0 mm WeatherDisplay:10.37 W/m2 -RA
12:49 39.9 °F /  4.4 °C 39.9 °F /  4.4 °C 29.53 in /  999.9 hPa Calm     100 % 0.00 in /  0 mm WeatherDisplay:10.37 W/m2 -RA
12:54 39.9 °F /  4.4 °C 39.9 °F /  4.4 °C 29.52 in /  999.5 hPa Calm     100 % 0.00 in /  0 mm WeatherDisplay:10.37 W/m2 -RA
13:04 40.1 °F /  4.5 °C 40.1 °F /  4.5 °C 29.52 in /  999.5 hPa Calm     100 % 0.00 in /  0 mm WeatherDisplay:10.37 W/m2 -RA
13:09 40.1 °F /  4.5 °C 40.1 °F /  4.5 °C 29.51 in /  999.2 hPa Calm     100 % 0.00 in /  0 mm WeatherDisplay:10.37 W/m2 -RA
13:14 40.2 °F /  4.6 °C 40.2 °F /  4.6 °C 29.51 in /  999.2 hPa Calm     100 % 0.00 in /  0 mm WeatherDisplay:10.37 W/m2 -RA
13:29 40.1 °F /  4.5 °C 40.1 °F /  4.5 °C 29.51 in /  999.2 hPa Calm   4.0 mph /  6.4 km/h 100 % 0.00 in /  0 mm WeatherDisplay:10.37 W/m2 -RA
13:34 40.1 °F /  4.5 °C 40.1 °F /  4.5 °C 29.50 in /  998.9 hPa Calm     100 % 0.00 in /  0 mm WeatherDisplay:10.37 W/m2 -RA
13:39 40.1 °F /  4.5 °C 40.1 °F /  4.5 °C 29.50 in /  998.9 hPa NW 2.0 mph /  3.2 km/h 5.0 mph /  8 km/h 100 % 0.00 in /  0 mm WeatherDisplay:10.37 W/m2 -RA
13:44 40.2 °F /  4.6 °C 40.2 °F /  4.6 °C 29.50 in /  998.9 hPa Calm     100 % 0.01 in /  0.25 mm WeatherDisplay:10.37 W/m2 -RA
14:19 41.2 °F /  5.1 °C 41.2 °F /  5.1 °C 29.50 in /  998.9 hPa Calm     100 % 0.01 in /  0.25 mm WeatherDisplay:10.37 W/m2 -RA
14:24 41.4 °F /  5.2 °C 41.4 °F /  5.2 °C 29.50 in /  998.9 hPa Calm   1.0 mph /  1.6 km/h 100 % 0.01 in /  0.25 mm WeatherDisplay:10.37 W/m2 -RA
14:29 41.5 °F /  5.3 °C 41.5 °F /  5.3 °C 29.51 in /  999.2 hPa Calm   2.0 mph /  3.2 km/h 100 % 0.01 in /  0.25 mm WeatherDisplay:10.37 W/m2 -RA
14:34 41.6 °F /  5.3 °C 41.6 °F /  5.3 °C 29.51 in /  999.2 hPa Calm   2.0 mph /  3.2 km/h 100 % 0.00 in /  0 mm WeatherDisplay:10.37 W/m2 -RA
14:39 41.7 °F /  5.4 °C 41.7 °F /  5.4 °C 29.51 in /  999.2 hPa Calm     100 % 0.01 in /  0.25 mm WeatherDisplay:10.37 W/m2 -RA
14:44 41.7 °F /  5.4 °C 41.7 °F /  5.4 °C 29.50 in /  998.9 hPa Calm     100 % 0.00 in /  0 mm WeatherDisplay:10.37 W/m2 -RA
14:49 41.8 °F /  5.4 °C 41.8 °F /  5.4 °C 29.50 in /  998.9 hPa Calm     100 % 0.00 in /  0 mm WeatherDisplay:10.37 W/m2 -RA
14:54 41.8 °F /  5.4 °C 41.8 °F /  5.4 °C 29.50 in /  998.9 hPa Calm     100 % 0.00 in /  0 mm WeatherDisplay:10.37 W/m2 -RA
14:59 41.8 °F /  5.4 °C 41.8 °F /  5.4 °C 29.51 in /  999.2 hPa Calm     100 % 0.00 in /  0 mm WeatherDisplay:10.37 W/m2 -RA
15:04 41.7 °F /  5.4 °C 41.7 °F /  5.4 °C 29.51 in /  999.2 hPa Calm     100 % 0.00 in /  0 mm WeatherDisplay:10.37 W/m2 -RA
15:09 41.5 °F /  5.3 °C 41.5 °F /  5.3 °C 29.51 in /  999.2 hPa NW 3.0 mph /  4.8 km/h 12.0 mph /  19.3 km/h 100 % 0.00 in /  0 mm WeatherDisplay:10.37 W/m2 -RA
15:19 43.2 °F /  6.2 °C 43.2 °F /  6.2 °C 29.52 in /  999.5 hPa NNW 5.0 mph /  8 km/h 12.0 mph /  19.3 km/h 100 % 0.00 in /  0 mm WeatherDisplay:10.37 W/m2 -RA
15:24 43.5 °F /  6.4 °C 43.5 °F /  6.4 °C 29.53 in /  999.9 hPa North 2.0 mph /  3.2 km/h 12.0 mph /  19.3 km/h 100 % 0.00 in /  0 mm WeatherDisplay:10.37 W/m2 -RA
15:29 43.3 °F /  6.3 °C 43.3 °F /  6.3 °C 29.54 in /  1000.2 hPa North 2.0 mph /  3.2 km/h 8.0 mph /  12.9 km/h 100 % 0.00 in /  0 mm WeatherDisplay:10.37 W/m2 -RA
15:39 42.3 °F /  5.7 °C 42.3 °F /  5.7 °C 29.54 in /  1000.2 hPa North 3.0 mph /  4.8 km/h 9.0 mph /  14.5 km/h 100 % 0.00 in /  0 mm WeatherDisplay:10.37 W/m2 -RA
15:49 41.4 °F /  5.2 °C 41.4 °F /  5.2 °C 29.54 in /  1000.2 hPa North 5.0 mph /  8 km/h 12.0 mph /  19.3 km/h 100 % 0.00 in /  0 mm WeatherDisplay:10.37 W/m2 -RA
15:59 40.5 °F /  4.7 °C 40.5 °F /  4.7 °C 29.54 in /  1000.2 hPa NNE 2.0 mph /  3.2 km/h 16.0 mph /  25.7 km/h 100 % 0.00 in /  0 mm WeatherDisplay:10.37 W/m2 -RA
16:04 40.2 °F /  4.6 °C 40.2 °F /  4.6 °C 29.54 in /  1000.2 hPa NNE 2.0 mph /  3.2 km/h 10.0 mph /  16.1 km/h 100 % 0.00 in /  0 mm WeatherDisplay:10.37 W/m2 -RA
16:09 39.9 °F /  4.4 °C 39.9 °F /  4.4 °C 29.55 in /  1000.6 hPa NNW 3.0 mph /  4.8 km/h 13.0 mph /  20.9 km/h 100 % 0.00 in /  0 mm WeatherDisplay:10.37 W/m2 -RA
16:14 39.7 °F /  4.3 °C 39.7 °F /  4.3 °C 29.57 in /  1001.2 hPa NNW 6.0 mph /  9.7 km/h 12.0 mph /  19.3 km/h 100 % 0.00 in /  0 mm WeatherDisplay:10.37 W/m2 -RA
16:19 39.5 °F /  4.2 °C 39.5 °F /  4.2 °C 29.57 in /  1001.2 hPa NNW 6.0 mph /  9.7 km/h 12.0 mph /  19.3 km/h 100 % 0.00 in /  0 mm WeatherDisplay:10.37 W/m2 -RA
16:24 39.3 °F /  4.1 °C 39.3 °F /  4.1 °C 29.57 in /  1001.2 hPa NNW 5.0 mph /  8 km/h 16.0 mph /  25.7 km/h 100 % 0.00 in /  0 mm WeatherDisplay:10.37 W/m2 -RA
16:29 39.0 °F /  3.9 °C 39.0 °F /  3.9 °C 29.58 in /  1001.6 hPa North 6.0 mph /  9.7 km/h 16.0 mph /  25.7 km/h 100 % 0.00 in /  0 mm WeatherDisplay:10.37 W/m2 -RA
16:34 38.7 °F /  3.7 °C 38.7 °F /  3.7 °C 29.58 in /  1001.6 hPa NNW 5.0 mph /  8 km/h 12.0 mph /  19.3 km/h 100 % 0.00 in /  0 mm WeatherDisplay:10.37 W/m2 -RA
16:39 38.5 °F /  3.6 °C 38.5 °F /  3.6 °C 29.58 in /  1001.6 hPa NNW 2.0 mph /  3.2 km/h 10.0 mph /  16.1 km/h 100 % 0.00 in /  0 mm WeatherDisplay:10.37 W/m2 -RA
16:44 38.3 °F /  3.5 °C 38.3 °F /  3.5 °C 29.58 in /  1001.6 hPa North 3.0 mph /  4.8 km/h 10.0 mph /  16.1 km/h 100 % 0.00 in /  0 mm WeatherDisplay:10.37 W/m2 -RA
16:49 38.0 °F /  3.3 °C 38.0 °F /  3.3 °C 29.58 in /  1001.6 hPa North 2.0 mph /  3.2 km/h 8.0 mph /  12.9 km/h 100 % 0.01 in /  0.25 mm WeatherDisplay:10.37 W/m2 -RA
16:54 37.9 °F /  3.3 °C 37.9 °F /  3.3 °C 29.59 in /  1001.9 hPa North 6.0 mph /  9.7 km/h 14.0 mph /  22.5 km/h 100 % 0.00 in /  0 mm WeatherDisplay:10.37 W/m2 -RA
16:59 37.7 °F /  3.2 °C 37.7 °F /  3.2 °C 29.59 in /  1001.9 hPa NNW 3.0 mph /  4.8 km/h 8.0 mph /  12.9 km/h 100 % 0.00 in /  0 mm WeatherDisplay:10.37 W/m2 -RA
17:04 37.5 °F /  3.1 °C 37.5 °F /  3.1 °C 29.59 in /  1001.9 hPa NNW 3.0 mph /  4.8 km/h 10.0 mph /  16.1 km/h 100 % 0.00 in /  0 mm WeatherDisplay:10.37 W/m2 -RA
17:09 37.3 °F /  2.9 °C 37.3 °F /  2.9 °C 29.59 in /  1001.9 hPa North 2.0 mph /  3.2 km/h 9.0 mph /  14.5 km/h 100 % 0.00 in /  0 mm WeatherDisplay:10.37 W/m2 -RA
17:14 37.2 °F /  2.9 °C 37.2 °F /  2.9 °C 29.60 in /  1002.3 hPa NNW 2.0 mph /  3.2 km/h 10.0 mph /  16.1 km/h 100 % 0.00 in /  0 mm WeatherDisplay:10.37 W/m2 -RA
17:19 37.0 °F /  2.8 °C 37.0 °F /  2.8 °C 29.60 in /  1002.3 hPa NNW 1.0 mph /  1.6 km/h 6.0 mph /  9.7 km/h 100 % 0.00 in /  0 mm WeatherDisplay:10.37 W/m2 -RA
17:29 36.8 °F /  2.7 °C 36.8 °F /  2.7 °C 29.61 in /  1002.6 hPa NNW 1.0 mph /  1.6 km/h 12.0 mph /  19.3 km/h 100 % 0.00 in /  0 mm WeatherDisplay:10.37 W/m2 -RA
17:39 36.5 °F /  2.5 °C 36.5 °F /  2.5 °C 29.62 in /  1002.9 hPa NNW 2.0 mph /  3.2 km/h 10.0 mph /  16.1 km/h 100 % 0.00 in /  0 mm WeatherDisplay:10.37 W/m2 -RA
17:44 36.3 °F /  2.4 °C 36.3 °F /  2.4 °C 29.63 in /  1003.3 hPa North 3.0 mph /  4.8 km/h 10.0 mph /  16.1 km/h 100 % 0.00 in /  0 mm WeatherDisplay:10.37 W/m2 -RA
17:49 36.1 °F /  2.3 °C 36.1 °F /  2.3 °C 29.63 in /  1003.3 hPa North 1.0 mph /  1.6 km/h 13.0 mph /  20.9 km/h 100 % 0.00 in /  0 mm WeatherDisplay:10.37 W/m2 -RA
17:59 35.9 °F /  2.2 °C 35.9 °F /  2.2 °C 29.64 in /  1003.6 hPa Calm   6.0 mph /  9.7 km/h 100 % 0.00 in /  0 mm WeatherDisplay:10.37 W/m2 -RA
18:04 35.8 °F /  2.1 °C 35.8 °F /  2.1 °C 29.65 in /  1003.9 hPa NNW 2.0 mph /  3.2 km/h 6.0 mph /  9.7 km/h 100 % 0.00 in /  0 mm WeatherDisplay:10.37 W/m2 -RA
18:09 35.7 °F /  2.1 °C 35.7 °F /  2.1 °C 29.65 in /  1003.9 hPa NNW 1.0 mph /  1.6 km/h 6.0 mph /  9.7 km/h 100 % 0.00 in /  0 mm WeatherDisplay:10.37 W/m2 -RA
18:14 35.6 °F /  2 °C 35.6 °F /  2 °C 29.66 in /  1004.3 hPa Calm   3.0 mph /  4.8 km/h 100 % 0.00 in /  0 mm WeatherDisplay:10.37 W/m2 -RA
18:19 35.5 °F /  1.9 °C 35.5 °F /  1.9 °C 29.66 in /  1004.3 hPa NNW 3.0 mph /  4.8 km/h 8.0 mph /  12.9 km/h 100 % 0.00 in /  0 mm WeatherDisplay:10.37 W/m2 -RA
18:24 35.4 °F /  1.9 °C 35.4 °F /  1.9 °C 29.67 in /  1004.6 hPa Calm   2.0 mph /  3.2 km/h 100 % 0.00 in /  0 mm WeatherDisplay:10.37 W/m2 -RA
18:29 35.3 °F /  1.8 °C 35.3 °F /  1.8 °C 29.68 in /  1005 hPa Calm     100 % 0.00 in /  0 mm WeatherDisplay:10.37 W/m2 -RA
18:44 34.9 °F /  1.6 °C 34.9 °F /  1.6 °C 29.70 in /  1005.6 hPa NE 1.0 mph /  1.6 km/h 4.0 mph /  6.4 km/h 100 % 0.00 in /  0 mm WeatherDisplay:10.37 W/m2 -RA
18:49 34.5 °F /  1.4 °C 34.5 °F /  1.4 °C 29.71 in /  1006 hPa NNE 3.0 mph /  4.8 km/h 9.0 mph /  14.5 km/h 100 % 0.00 in /  0 mm WeatherDisplay:10.37 W/m2 -RA
18:54 33.9 °F /  1.1 °C 33.9 °F /  1.1 °C 29.72 in /  1006.3 hPa North 5.0 mph /  8 km/h 13.0 mph /  20.9 km/h 100 % 0.00 in /  0 mm WeatherDisplay:10.37 W/m2 -RA
18:59 33.2 °F /  0.7 °C 32.1 °F /  0.1 °C 29.74 in /  1007 hPa NNE 3.0 mph /  4.8 km/h 13.0 mph /  20.9 km/h 96 % 0.00 in /  0 mm WeatherDisplay:10.37 W/m2 -RA
19:09 32.2 °F /  0.1 °C 31.2 °F /  -0.4 °C 29.74 in /  1007 hPa NNE 3.0 mph /  4.8 km/h 7.0 mph /  11.3 km/h 96 % 0.00 in /  0 mm WeatherDisplay:10.37 W/m2 -RA
19:14 31.8 °F /  -0.1 °C 31.8 °F /  -0.1 °C 29.75 in /  1007.3 hPa North 3.0 mph /  4.8 km/h 10.0 mph /  16.1 km/h 100 % 0.00 in /  0 mm WeatherDisplay:10.37 W/m2 -RA
19:19 31.5 °F /  -0.3 °C 30.5 °F /  -0.8 °C 29.75 in /  1007.3 hPa Calm   7.0 mph /  11.3 km/h 96 % 0.00 in /  0 mm WeatherDisplay:10.37 W/m2 -RA
19:24 31.2 °F /  -0.4 °C 31.2 °F /  -0.4 °C 29.75 in /  1007.3 hPa North 1.0 mph /  1.6 km/h 5.0 mph /  8 km/h 100 % 0.00 in /  0 mm WeatherDisplay:10.37 W/m2 -RA
19:29 30.9 °F /  -0.6 °C 29.9 °F /  -1.2 °C 29.75 in /  1007.3 hPa NNW 3.0 mph /  4.8 km/h 7.0 mph /  11.3 km/h 96 % 0.00 in /  0 mm WeatherDisplay:10.37 W/m2 -PL
19:34 30.6 °F /  -0.8 °C 29.6 °F /  -1.3 °C 29.77 in /  1008 hPa NNW 2.0 mph /  3.2 km/h 7.0 mph /  11.3 km/h 96 % 0.00 in /  0 mm WeatherDisplay:10.37 W/m2 -PL
19:44 30.0 °F /  -1.1 °C 29.0 °F /  -1.7 °C 29.78 in /  1008.4 hPa Calm   3.0 mph /  4.8 km/h 96 % 0.00 in /  0 mm WeatherDisplay:10.37 W/m2 -PL
19:54 29.5 °F /  -1.4 °C 28.5 °F /  -1.9 °C 29.79 in /  1008.7 hPa Calm   7.0 mph /  11.3 km/h 96 % 0.00 in /  0 mm WeatherDisplay:10.37 W/m2 -PL
20:04 28.9 °F /  -1.7 °C 27.9 °F /  -2.3 °C 29.80 in /  1009 hPa NE 1.0 mph /  1.6 km/h 4.0 mph /  6.4 km/h 96 % 0.01 in /  0.25 mm WeatherDisplay:10.37 W/m2 -PL
20:09 28.7 °F /  -1.8 °C 27.7 °F /  -2.4 °C 29.80 in /  1009 hPa Calm   2.0 mph /  3.2 km/h 96 % 0.00 in /  0 mm WeatherDisplay:10.37 W/m2 -PL
20:14 28.5 °F /  -1.9 °C 27.5 °F /  -2.5 °C 29.81 in /  1009.4 hPa NNW 1.0 mph /  1.6 km/h 7.0 mph /  11.3 km/h 96 % 0.00 in /  0 mm WeatherDisplay:10.37 W/m2 OVC
20:19 28.2 °F /  -2.1 °C 27.2 °F /  -2.7 °C 29.82 in /  1009.7 hPa NNW 7.0 mph /  11.3 km/h 12.0 mph /  19.3 km/h 96 % 0.01 in /  0.25 mm WeatherDisplay:10.37 W/m2 RA
20:24 27.7 °F /  -2.4 °C 26.7 °F /  -2.9 °C 29.83 in /  1010 hPa NNW 1.0 mph /  1.6 km/h 7.0 mph /  11.3 km/h 96 % 0.00 in /  0 mm WeatherDisplay:10.37 W/m2 RA
20:29 27.4 °F /  -2.6 °C 26.4 °F /  -3.1 °C 29.83 in /  1010 hPa NNW 1.0 mph /  1.6 km/h 3.0 mph /  4.8 km/h 96 % 0.00 in /  0 mm WeatherDisplay:10.37 W/m2 OVC
20:34 27.2 °F /  -2.7 °C 26.2 °F /  -3.2 °C 29.82 in /  1009.7 hPa North 2.0 mph /  3.2 km/h 8.0 mph /  12.9 km/h 96 % 0.00 in /  0 mm WeatherDisplay:10.37 W/m2 OVC
20:44 26.5 °F /  -3.1 °C 25.5 °F /  -3.6 °C 29.83 in /  1010 hPa NNE 1.0 mph /  1.6 km/h 4.0 mph /  6.4 km/h 96 % 0.01 in /  0.25 mm WeatherDisplay:10.37 W/m2 RA
20:49 26.3 °F /  -3.2 °C 25.3 °F /  -3.7 °C 29.83 in /  1010 hPa NNE 2.0 mph /  3.2 km/h 7.0 mph /  11.3 km/h 96 % 0.00 in /  0 mm WeatherDisplay:10.37 W/m2 RA
20:54 25.9 °F /  -3.4 °C 24.6 °F /  -4.1 °C 29.84 in /  1010.4 hPa NNW 2.0 mph /  3.2 km/h 6.0 mph /  9.7 km/h 95 % 0.00 in /  0 mm WeatherDisplay:10.37 W/m2 OVC
21:09 24.4 °F /  -4.2 °C 23.2 °F /  -4.9 °C 29.83 in /  1010 hPa NNE 1.0 mph /  1.6 km/h 6.0 mph /  9.7 km/h 95 % 0.01 in /  0.25 mm WeatherDisplay:10.37 W/m2 -SN
21:14 24.2 °F /  -4.3 °C 22.9 °F /  -5.1 °C 29.82 in /  1009.7 hPa Calm   5.0 mph /  8 km/h 95 % 0.00 in /  0 mm WeatherDisplay:10.37 W/m2 -SN
21:29 23.3 °F /  -4.8 °C 21.8 °F /  -5.7 °C 29.83 in /  1010 hPa North 1.0 mph /  1.6 km/h 8.0 mph /  12.9 km/h 94 % 0.00 in /  0 mm WeatherDisplay:10.37 W/m2 -SN
21:34 22.8 °F /  -5.1 °C 21.3 °F /  -5.9 °C 29.84 in /  1010.4 hPa North 1.0 mph /  1.6 km/h 9.0 mph /  14.5 km/h 94 % 0.00 in /  0 mm WeatherDisplay:10.37 W/m2 -SN
21:39 22.5 °F /  -5.3 °C 21.0 °F /  -6.1 °C 29.84 in /  1010.4 hPa NNE 1.0 mph /  1.6 km/h 5.0 mph /  8 km/h 94 % 0.01 in /  0.25 mm WeatherDisplay:10.37 W/m2 -SN
21:44 22.2 °F /  -5.4 °C 20.8 °F /  -6.2 °C 29.85 in /  1010.7 hPa NNE 2.0 mph /  3.2 km/h 6.0 mph /  9.7 km/h 94 % 0.01 in /  0.25 mm WeatherDisplay:10.37 W/m2 -SN
21:49 22.0 °F /  -5.6 °C 20.5 °F /  -6.4 °C 29.86 in /  1011.1 hPa North 1.0 mph /  1.6 km/h 4.0 mph /  6.4 km/h 94 % 0.00 in /  0 mm WeatherDisplay:10.37 W/m2 -SN
21:59 21.6 °F /  -5.8 °C 20.1 °F /  -6.6 °C 29.85 in /  1010.7 hPa North 1.0 mph /  1.6 km/h 8.0 mph /  12.9 km/h 94 % 0.00 in /  0 mm WeatherDisplay:10.37 W/m2 -SN
22:04 21.4 °F /  -5.9 °C 19.9 °F /  -6.7 °C 29.87 in /  1011.4 hPa Calm   8.0 mph /  12.9 km/h 94 % 0.00 in /  0 mm WeatherDisplay:10.37 W/m2 -SN
22:14 21.2 °F /  -6 °C 19.7 °F /  -6.8 °C 29.86 in /  1011.1 hPa Calm   5.0 mph /  8 km/h 94 % 0.01 in /  0.25 mm WeatherDisplay:10.37 W/m2 -SN
22:29 20.6 °F /  -6.3 °C 18.9 °F /  -7.3 °C 29.88 in /  1011.7 hPa North 1.0 mph /  1.6 km/h 8.0 mph /  12.9 km/h 93 % 0.00 in /  0 mm WeatherDisplay:10.37 W/m2 -SN
22:34 20.4 °F /  -6.4 °C 18.7 °F /  -7.4 °C 29.89 in /  1012.1 hPa North 1.0 mph /  1.6 km/h 4.0 mph /  6.4 km/h 93 % 0.00 in /  0 mm WeatherDisplay:10.37 W/m2 -SN
22:39 20.1 °F /  -6.6 °C 18.4 °F /  -7.6 °C 29.89 in /  1012.1 hPa North 2.0 mph /  3.2 km/h 7.0 mph /  11.3 km/h 93 % 0.00 in /  0 mm WeatherDisplay:10.37 W/m2 -SN
22:44 19.8 °F /  -6.8 °C 18.1 °F /  -7.7 °C 29.89 in /  1012.1 hPa Calm   6.0 mph /  9.7 km/h 93 % 0.01 in /  0.25 mm WeatherDisplay:10.37 W/m2 -SN
22:49 19.6 °F /  -6.9 °C 17.9 °F /  -7.8 °C 29.89 in /  1012.1 hPa North 1.0 mph /  1.6 km/h 7.0 mph /  11.3 km/h 93 % 0.00 in /  0 mm WeatherDisplay:10.37 W/m2 -SN
22:54 19.4 °F /  -7 °C 17.7 °F /  -7.9 °C 29.89 in /  1012.1 hPa NNE 1.0 mph /  1.6 km/h 9.0 mph /  14.5 km/h 93 % 0.00 in /  0 mm WeatherDisplay:10.37 W/m2 -SN
22:59 19.2 °F /  -7.1 °C 17.5 °F /  -8.1 °C 29.89 in /  1012.1 hPa NNE 1.0 mph /  1.6 km/h 5.0 mph /  8 km/h 93 % 0.00 in /  0 mm WeatherDisplay:10.37 W/m2 -SN
23:04 19.0 °F /  -7.2 °C 17.3 °F /  -8.2 °C 29.89 in /  1012.1 hPa Calm   5.0 mph /  8 km/h 93 % 0.00 in /  0 mm WeatherDisplay:10.37 W/m2 -SN
23:09 18.9 °F /  -7.3 °C 17.2 °F /  -8.2 °C 29.88 in /  1011.7 hPa Calm   6.0 mph /  9.7 km/h 93 % 0.01 in /  0.25 mm WeatherDisplay:10.37 W/m2 -SN
23:14 18.8 °F /  -7.3 °C 17.1 °F /  -8.3 °C 29.88 in /  1011.7 hPa Calm   3.0 mph /  4.8 km/h 93 % 0.00 in /  0 mm WeatherDisplay:10.37 W/m2 -SN
23:19 18.7 °F /  -7.4 °C 17.0 °F /  -8.3 °C 29.88 in /  1011.7 hPa Calm   4.0 mph /  6.4 km/h 93 % 0.00 in /  0 mm WeatherDisplay:10.37 W/m2 -SN
23:24 18.7 °F /  -7.4 °C 17.0 °F /  -8.3 °C 29.88 in /  1011.7 hPa North 1.0 mph /  1.6 km/h 5.0 mph /  8 km/h 93 % 0.00 in /  0 mm WeatherDisplay:10.37 W/m2 -SN
23:29 18.5 °F /  -7.5 °C 16.8 °F /  -8.4 °C 29.87 in /  1011.4 hPa NE 1.0 mph /  1.6 km/h 7.0 mph /  11.3 km/h 93 % 0.00 in /  0 mm WeatherDisplay:10.37 W/m2 -SN
23:34 18.4 °F /  -7.6 °C 16.7 °F /  -8.5 °C 29.87 in /  1011.4 hPa Calm   2.0 mph /  3.2 km/h 93 % 0.00 in /  0 mm WeatherDisplay:10.37 W/m2 -SN
23:39 18.4 °F /  -7.6 °C 16.7 °F /  -8.5 °C 29.87 in /  1011.4 hPa NNE 1.0 mph /  1.6 km/h 4.0 mph /  6.4 km/h 93 % 0.00 in /  0 mm WeatherDisplay:10.37 W/m2 -SN
23:44 18.3 °F /  -7.6 °C 16.6 °F /  -8.6 °C 29.87 in /  1011.4 hPa NNE 1.0 mph /  1.6 km/h 3.0 mph /  4.8 km/h 93 % 0.00 in /  0 mm WeatherDisplay:10.37 W/m2 -SN
23:49 18.2 °F /  -7.7 °C 16.5 °F /  -8.6 °C 29.88 in /  1011.7 hPa Calm   4.0 mph /  6.4 km/h 93 % 0.00 in /  0 mm WeatherDisplay:10.37 W/m2 -SN
23:54 18.1 °F /  -7.7 °C 16.5 °F /  -8.6 °C 29.87 in /  1011.4 hPa Calm   4.0 mph /  6.4 km/h 93 % 0.00 in /  0 mm WeatherDisplay:10.37 W/m2 -SN
Juneau County Weather
Compliments of Weather Underground - 2.75 mb